sensor_id;sensor_type;location;lat;lon;timestamp;P1;durP1;ratioP1;P2;durP2;ratioP2
70169;SDS011;57543;45.442;9.212;2023-04-08T00:01:33;22.70;;;13.40;;
70169;SDS011;57543;45.442;9.212;2023-04-08T00:04:37;24.83;;;13.55;;
70169;SDS011;57543;45.442;9.212;2023-04-08T00:07:40;23.70;;;14.00;;
70169;SDS011;57543;45.442;9.212;2023-04-08T00:10:43;24.02;;;13.65;;
70169;SDS011;57543;45.442;9.212;2023-04-08T00:13:48;23.33;;;13.90;;
70169;SDS011;57543;45.442;9.212;2023-04-08T00:16:51;24.73;;;14.87;;
70169;SDS011;57543;45.442;9.212;2023-04-08T00:19:54;23.60;;;14.13;;
70169;SDS011;57543;45.442;9.212;2023-04-08T00:22:59;24.33;;;13.90;;
70169;SDS011;57543;45.442;9.212;2023-04-08T00:26:02;24.27;;;14.65;;
70169;SDS011;57543;45.442;9.212;2023-04-08T00:29:06;24.95;;;15.30;;
70169;SDS011;57543;45.442;9.212;2023-04-08T00:32:09;25.70;;;16.10;;
70169;SDS011;57543;45.442;9.212;2023-04-08T00:35:12;24.08;;;15.23;;
70169;SDS011;57543;45.442;9.212;2023-04-08T00:38:16;25.10;;;15.63;;
70169;SDS011;57543;45.442;9.212;2023-04-08T00:41:20;23.83;;;14.18;;
70169;SDS011;57543;45.442;9.212;2023-04-08T00:44:24;22.38;;;14.20;;
70169;SDS011;57543;45.442;9.212;2023-04-08T00:47:27;22.53;;;14.33;;
70169;SDS011;57543;45.442;9.212;2023-04-08T00:50:31;23.05;;;14.27;;
70169;SDS011;57543;45.442;9.212;2023-04-08T00:53:35;24.10;;;14.43;;
70169;SDS011;57543;45.442;9.212;2023-04-08T00:56:39;24.70;;;14.88;;
70169;SDS011;57543;45.442;9.212;2023-04-08T00:59:42;21.58;;;13.38;;
70169;SDS011;57543;45.442;9.212;2023-04-08T01:02:50;25.37;;;13.83;;
70169;SDS011;57543;45.442;9.212;2023-04-08T01:09:45;27.80;;;13.90;;
70169;SDS011;57543;45.442;9.212;2023-04-08T01:12:55;26.98;;;13.63;;
70169;SDS011;57543;45.442;9.212;2023-04-08T01:16:03;22.63;;;13.38;;
70169;SDS011;57543;45.442;9.212;2023-04-08T01:19:07;25.17;;;13.83;;
70169;SDS011;57543;45.442;9.212;2023-04-08T01:25:49;21.75;;;13.35;;
70169;SDS011;57543;45.442;9.212;2023-04-08T01:28:55;21.52;;;13.10;;
70169;SDS011;57543;45.442;9.212;2023-04-08T01:32:01;21.73;;;13.20;;
70169;SDS011;57543;45.442;9.212;2023-04-08T01:35:06;22.90;;;13.83;;
70169;SDS011;57543;45.442;9.212;2023-04-08T01:38:13;23.33;;;14.02;;
70169;SDS011;57543;45.442;9.212;2023-04-08T01:41:18;23.63;;;13.68;;
70169;SDS011;57543;45.442;9.212;2023-04-08T01:44:23;22.85;;;13.20;;
70169;SDS011;57543;45.442;9.212;2023-04-08T01:47:28;20.50;;;13.05;;
70169;SDS011;57543;45.442;9.212;2023-04-08T01:50:32;19.63;;;12.93;;
70169;SDS011;57543;45.442;9.212;2023-04-08T01:53:37;23.60;;;13.60;;
70169;SDS011;57543;45.442;9.212;2023-04-08T01:56:41;23.67;;;13.93;;
70169;SDS011;57543;45.442;9.212;2023-04-08T01:59:49;23.52;;;13.70;;
70169;SDS011;57543;45.442;9.212;2023-04-08T02:02:54;23.90;;;14.02;;
70169;SDS011;57543;45.442;9.212;2023-04-08T02:05:59;22.80;;;14.30;;
70169;SDS011;57543;45.442;9.212;2023-04-08T02:09:03;25.15;;;14.15;;
70169;SDS011;57543;45.442;9.212;2023-04-08T02:12:07;22.38;;;13.88;;
70169;SDS011;57543;45.442;9.212;2023-04-08T02:15:11;27.42;;;15.23;;
70169;SDS011;57543;45.442;9.212;2023-04-08T02:18:20;24.95;;;15.48;;
70169;SDS011;57543;45.442;9.212;2023-04-08T02:21:31;23.73;;;14.50;;
70169;SDS011;57543;45.442;9.212;2023-04-08T02:24:46;25.40;;;14.88;;
70169;SDS011;57543;45.442;9.212;2023-04-08T02:27:51;26.58;;;14.80;;
70169;SDS011;57543;45.442;9.212;2023-04-08T02:30:57;27.45;;;16.00;;
70169;SDS011;57543;45.442;9.212;2023-04-08T02:34:03;28.00;;;15.95;;
70169;SDS011;57543;45.442;9.212;2023-04-08T02:37:09;25.57;;;15.03;;
70169;SDS011;57543;45.442;9.212;2023-04-08T02:40:26;27.80;;;16.40;;
70169;SDS011;57543;45.442;9.212;2023-04-08T02:43:31;26.55;;;15.80;;
70169;SDS011;57543;45.442;9.212;2023-04-08T02:46:35;29.95;;;17.05;;
70169;SDS011;57543;45.442;9.212;2023-04-08T02:49:39;31.88;;;16.70;;
70169;SDS011;57543;45.442;9.212;2023-04-08T02:52:43;28.53;;;16.40;;
70169;SDS011;57543;45.442;9.212;2023-04-08T02:55:47;28.38;;;16.92;;
70169;SDS011;57543;45.442;9.212;2023-04-08T02:58:51;35.13;;;18.10;;
70169;SDS011;57543;45.442;9.212;2023-04-08T03:01:54;32.70;;;17.45;;
70169;SDS011;57543;45.442;9.212;2023-04-08T03:04:58;32.38;;;17.88;;
70169;SDS011;57543;45.442;9.212;2023-04-08T03:08:02;34.60;;;18.33;;
70169;SDS011;57543;45.442;9.212;2023-04-08T03:11:06;34.50;;;19.88;;
70169;SDS011;57543;45.442;9.212;2023-04-08T03:14:10;36.63;;;20.73;;
70169;SDS011;57543;45.442;9.212;2023-04-08T03:17:13;36.17;;;19.98;;
70169;SDS011;57543;45.442;9.212;2023-04-08T03:20:17;36.75;;;19.50;;
70169;SDS011;57543;45.442;9.212;2023-04-08T03:23:21;36.47;;;20.80;;
70169;SDS011;57543;45.442;9.212;2023-04-08T03:26:24;35.63;;;19.85;;
70169;SDS011;57543;45.442;9.212;2023-04-08T03:29:29;38.60;;;20.65;;
70169;SDS011;57543;45.442;9.212;2023-04-08T03:32:32;37.45;;;20.02;;
70169;SDS011;57543;45.442;9.212;2023-04-08T03:35:36;36.47;;;20.02;;
70169;SDS011;57543;45.442;9.212;2023-04-08T03:38:41;39.27;;;20.17;;
70169;SDS011;57543;45.442;9.212;2023-04-08T03:41:44;39.80;;;21.60;;
70169;SDS011;57543;45.442;9.212;2023-04-08T03:44:48;39.58;;;22.30;;
70169;SDS011;57543;45.442;9.212;2023-04-08T03:47:51;42.90;;;22.95;;
70169;SDS011;57543;45.442;9.212;2023-04-08T03:50:55;43.00;;;22.60;;
70169;SDS011;57543;45.442;9.212;2023-04-08T03:54:01;41.33;;;21.40;;
70169;SDS011;57543;45.442;9.212;2023-04-08T03:57:04;45.58;;;23.13;;
70169;SDS011;57543;45.442;9.212;2023-04-08T04:00:08;42.58;;;22.83;;
70169;SDS011;57543;45.442;9.212;2023-04-08T04:03:21;43.70;;;23.70;;
70169;SDS011;57543;45.442;9.212;2023-04-08T04:06:24;43.90;;;22.75;;
70169;SDS011;57543;45.442;9.212;2023-04-08T04:09:29;42.83;;;22.43;;
70169;SDS011;57543;45.442;9.212;2023-04-08T04:12:33;43.45;;;22.75;;
70169;SDS011;57543;45.442;9.212;2023-04-08T04:15:40;43.17;;;22.70;;
70169;SDS011;57543;45.442;9.212;2023-04-08T04:18:44;42.03;;;22.10;;
70169;SDS011;57543;45.442;9.212;2023-04-08T04:21:49;41.92;;;23.00;;
70169;SDS011;57543;45.442;9.212;2023-04-08T04:24:53;43.33;;;22.90;;
70169;SDS011;57543;45.442;9.212;2023-04-08T04:27:56;43.85;;;23.00;;
70169;SDS011;57543;45.442;9.212;2023-04-08T04:30:59;44.97;;;24.17;;
70169;SDS011;57543;45.442;9.212;2023-04-08T04:34:03;44.25;;;23.90;;
70169;SDS011;57543;45.442;9.212;2023-04-08T04:37:06;41.85;;;23.35;;
70169;SDS011;57543;45.442;9.212;2023-04-08T04:40:09;43.80;;;23.17;;
70169;SDS011;57543;45.442;9.212;2023-04-08T04:43:13;41.75;;;23.05;;
70169;SDS011;57543;45.442;9.212;2023-04-08T04:46:16;47.25;;;23.75;;
70169;SDS011;57543;45.442;9.212;2023-04-08T04:49:20;46.85;;;24.70;;
70169;SDS011;57543;45.442;9.212;2023-04-08T04:52:23;43.53;;;23.25;;
70169;SDS011;57543;45.442;9.212;2023-04-08T04:55:27;46.83;;;23.37;;
70169;SDS011;57543;45.442;9.212;2023-04-08T04:58:30;47.55;;;24.75;;
70169;SDS011;57543;45.442;9.212;2023-04-08T05:01:34;48.15;;;25.13;;
70169;SDS011;57543;45.442;9.212;2023-04-08T05:04:38;47.85;;;24.50;;
70169;SDS011;57543;45.442;9.212;2023-04-08T05:07:41;42.92;;;23.75;;
70169;SDS011;57543;45.442;9.212;2023-04-08T05:10:45;47.23;;;24.33;;
70169;SDS011;57543;45.442;9.212;2023-04-08T05:13:49;47.58;;;23.55;;
70169;SDS011;57543;45.442;9.212;2023-04-08T05:16:52;44.55;;;23.42;;
70169;SDS011;57543;45.442;9.212;2023-04-08T05:19:56;45.63;;;23.63;;
70169;SDS011;57543;45.442;9.212;2023-04-08T05:22:59;44.67;;;24.17;;
70169;SDS011;57543;45.442;9.212;2023-04-08T05:26:04;47.97;;;24.33;;
70169;SDS011;57543;45.442;9.212;2023-04-08T05:29:09;45.95;;;23.88;;
70169;SDS011;57543;45.442;9.212;2023-04-08T05:32:13;40.30;;;22.70;;
70169;SDS011;57543;45.442;9.212;2023-04-08T05:35:19;46.22;;;24.15;;
70169;SDS011;57543;45.442;9.212;2023-04-08T05:38:22;45.50;;;24.00;;
70169;SDS011;57543;45.442;9.212;2023-04-08T05:41:26;46.10;;;23.57;;
70169;SDS011;57543;45.442;9.212;2023-04-08T05:44:30;44.53;;;24.27;;
70169;SDS011;57543;45.442;9.212;2023-04-08T05:47:33;45.65;;;24.48;;
70169;SDS011;57543;45.442;9.212;2023-04-08T05:50:36;44.45;;;24.17;;
70169;SDS011;57543;45.442;9.212;2023-04-08T05:53:40;45.40;;;24.52;;
70169;SDS011;57543;45.442;9.212;2023-04-08T05:56:43;45.63;;;23.03;;
70169;SDS011;57543;45.442;9.212;2023-04-08T05:59:48;48.00;;;23.90;;
70169;SDS011;57543;45.442;9.212;2023-04-08T06:02:52;45.17;;;23.15;;
70169;SDS011;57543;45.442;9.212;2023-04-08T06:05:56;44.45;;;22.85;;
70169;SDS011;57543;45.442;9.212;2023-04-08T06:08:59;40.95;;;22.23;;
70169;SDS011;57543;45.442;9.212;2023-04-08T06:12:02;41.00;;;21.93;;
70169;SDS011;57543;45.442;9.212;2023-04-08T06:15:06;41.03;;;22.58;;
70169;SDS011;57543;45.442;9.212;2023-04-08T06:18:11;40.92;;;22.75;;
70169;SDS011;57543;45.442;9.212;2023-04-08T06:21:14;43.85;;;23.85;;
70169;SDS011;57543;45.442;9.212;2023-04-08T06:24:18;44.63;;;23.85;;
70169;SDS011;57543;45.442;9.212;2023-04-08T06:27:21;43.07;;;23.77;;
70169;SDS011;57543;45.442;9.212;2023-04-08T06:30:25;44.03;;;23.23;;
70169;SDS011;57543;45.442;9.212;2023-04-08T06:33:28;45.95;;;25.48;;
70169;SDS011;57543;45.442;9.212;2023-04-08T06:36:32;40.78;;;23.38;;
70169;SDS011;57543;45.442;9.212;2023-04-08T06:39:35;41.65;;;24.08;;
70169;SDS011;57543;45.442;9.212;2023-04-08T06:42:39;42.17;;;23.53;;
70169;SDS011;57543;45.442;9.212;2023-04-08T06:46:08;41.30;;;23.13;;
70169;SDS011;57543;45.442;9.212;2023-04-08T06:49:12;47.67;;;24.30;;
70169;SDS011;57543;45.442;9.212;2023-04-08T06:52:16;44.25;;;23.65;;
70169;SDS011;57543;45.442;9.212;2023-04-08T06:55:20;43.65;;;24.85;;
70169;SDS011;57543;45.442;9.212;2023-04-08T06:58:24;46.27;;;25.17;;
70169;SDS011;57543;45.442;9.212;2023-04-08T07:01:28;45.90;;;24.48;;
70169;SDS011;57543;45.442;9.212;2023-04-08T07:04:31;45.60;;;25.23;;
70169;SDS011;57543;45.442;9.212;2023-04-08T07:07:35;48.90;;;25.75;;
70169;SDS011;57543;45.442;9.212;2023-04-08T07:10:39;43.58;;;24.85;;
70169;SDS011;57543;45.442;9.212;2023-04-08T07:13:43;46.90;;;26.63;;
70169;SDS011;57543;45.442;9.212;2023-04-08T07:16:47;51.92;;;27.05;;
70169;SDS011;57543;45.442;9.212;2023-04-08T07:19:50;45.85;;;25.25;;
70169;SDS011;57543;45.442;9.212;2023-04-08T07:22:54;43.80;;;24.88;;
70169;SDS011;57543;45.442;9.212;2023-04-08T07:26:04;46.90;;;25.60;;
70169;SDS011;57543;45.442;9.212;2023-04-08T07:29:08;44.13;;;24.80;;
70169;SDS011;57543;45.442;9.212;2023-04-08T07:32:12;45.28;;;25.90;;
70169;SDS011;57543;45.442;9.212;2023-04-08T07:35:15;47.90;;;25.27;;
70169;SDS011;57543;45.442;9.212;2023-04-08T07:38:26;49.78;;;24.92;;
70169;SDS011;57543;45.442;9.212;2023-04-08T07:41:29;42.53;;;23.85;;
70169;SDS011;57543;45.442;9.212;2023-04-08T07:44:33;48.03;;;25.87;;
70169;SDS011;57543;45.442;9.212;2023-04-08T07:47:38;43.28;;;23.17;;
70169;SDS011;57543;45.442;9.212;2023-04-08T07:50:41;45.55;;;23.05;;
70169;SDS011;57543;45.442;9.212;2023-04-08T07:53:45;41.60;;;23.23;;
70169;SDS011;57543;45.442;9.212;2023-04-08T07:56:48;44.65;;;23.92;;
70169;SDS011;57543;45.442;9.212;2023-04-08T07:59:52;42.23;;;22.80;;
70169;SDS011;57543;45.442;9.212;2023-04-08T08:02:56;34.95;;;19.10;;
70169;SDS011;57543;45.442;9.212;2023-04-08T08:06:00;39.08;;;22.60;;
70169;SDS011;57543;45.442;9.212;2023-04-08T08:09:04;42.60;;;21.75;;
70169;SDS011;57543;45.442;9.212;2023-04-08T08:12:08;38.28;;;20.23;;
70169;SDS011;57543;45.442;9.212;2023-04-08T08:15:11;41.37;;;21.77;;
70169;SDS011;57543;45.442;9.212;2023-04-08T08:18:15;35.80;;;20.33;;
70169;SDS011;57543;45.442;9.212;2023-04-08T08:21:18;36.00;;;20.42;;
70169;SDS011;57543;45.442;9.212;2023-04-08T08:24:22;33.83;;;19.17;;
70169;SDS011;57543;45.442;9.212;2023-04-08T08:27:29;25.85;;;15.73;;
70169;SDS011;57543;45.442;9.212;2023-04-08T08:30:32;28.00;;;16.07;;
70169;SDS011;57543;45.442;9.212;2023-04-08T08:33:36;29.23;;;17.75;;
70169;SDS011;57543;45.442;9.212;2023-04-08T08:36:40;28.17;;;15.90;;
70169;SDS011;57543;45.442;9.212;2023-04-08T08:39:43;27.63;;;15.40;;
70169;SDS011;57543;45.442;9.212;2023-04-08T08:42:49;26.80;;;16.25;;
70169;SDS011;57543;45.442;9.212;2023-04-08T08:45:57;23.87;;;14.57;;
70169;SDS011;57543;45.442;9.212;2023-04-08T08:49:01;25.17;;;14.45;;
70169;SDS011;57543;45.442;9.212;2023-04-08T08:52:04;22.85;;;14.35;;
70169;SDS011;57543;45.442;9.212;2023-04-08T08:55:09;24.40;;;13.63;;
70169;SDS011;57543;45.442;9.212;2023-04-08T08:58:14;24.13;;;14.20;;
70169;SDS011;57543;45.442;9.212;2023-04-08T09:01:31;23.73;;;14.33;;
70169;SDS011;57543;45.442;9.212;2023-04-08T09:04:40;22.67;;;13.32;;
70169;SDS011;57543;45.442;9.212;2023-04-08T09:07:59;22.63;;;12.77;;
70169;SDS011;57543;45.442;9.212;2023-04-08T09:11:13;23.10;;;13.90;;
70169;SDS011;57543;45.442;9.212;2023-04-08T09:14:26;20.33;;;13.20;;
70169;SDS011;57543;45.442;9.212;2023-04-08T09:17:33;23.90;;;14.03;;
70169;SDS011;57543;45.442;9.212;2023-04-08T09:20:50;24.52;;;14.65;;
70169;SDS011;57543;45.442;9.212;2023-04-08T09:23:54;24.45;;;13.57;;
70169;SDS011;57543;45.442;9.212;2023-04-08T09:26:58;21.38;;;13.02;;
70169;SDS011;57543;45.442;9.212;2023-04-08T09:30:12;20.23;;;12.50;;
70169;SDS011;57543;45.442;9.212;2023-04-08T09:33:16;20.87;;;12.17;;
70169;SDS011;57543;45.442;9.212;2023-04-08T09:36:20;21.58;;;13.15;;
70169;SDS011;57543;45.442;9.212;2023-04-08T09:39:24;20.70;;;12.93;;
70169;SDS011;57543;45.442;9.212;2023-04-08T09:42:28;19.60;;;12.25;;
70169;SDS011;57543;45.442;9.212;2023-04-08T09:45:33;20.48;;;11.98;;
70169;SDS011;57543;45.442;9.212;2023-04-08T09:48:39;20.40;;;12.00;;
70169;SDS011;57543;45.442;9.212;2023-04-08T09:51:52;19.17;;;12.18;;
70169;SDS011;57543;45.442;9.212;2023-04-08T09:55:03;17.65;;;11.18;;
70169;SDS011;57543;45.442;9.212;2023-04-08T09:58:15;17.48;;;10.07;;
70169;SDS011;57543;45.442;9.212;2023-04-08T10:01:31;16.20;;;10.48;;
70169;SDS011;57543;45.442;9.212;2023-04-08T10:04:41;19.37;;;10.50;;
70169;SDS011;57543;45.442;9.212;2023-04-08T10:07:50;16.02;;;10.05;;
70169;SDS011;57543;45.442;9.212;2023-04-08T10:10:55;17.55;;;9.48;;
70169;SDS011;57543;45.442;9.212;2023-04-08T10:13:59;18.45;;;11.15;;
70169;SDS011;57543;45.442;9.212;2023-04-08T10:17:26;17.38;;;10.25;;
70169;SDS011;57543;45.442;9.212;2023-04-08T10:23:51;15.23;;;9.43;;
70169;SDS011;57543;45.442;9.212;2023-04-08T10:26:57;15.57;;;8.65;;
70169;SDS011;57543;45.442;9.212;2023-04-08T10:30:01;15.32;;;9.70;;
70169;SDS011;57543;45.442;9.212;2023-04-08T10:33:14;15.82;;;9.45;;
70169;SDS011;57543;45.442;9.212;2023-04-08T10:36:19;18.60;;;10.27;;
70169;SDS011;57543;45.442;9.212;2023-04-08T10:39:23;13.30;;;8.38;;
70169;SDS011;57543;45.442;9.212;2023-04-08T10:42:28;14.50;;;9.27;;
70169;SDS011;57543;45.442;9.212;2023-04-08T10:45:32;16.27;;;8.82;;
70169;SDS011;57543;45.442;9.212;2023-04-08T10:48:36;13.85;;;8.75;;
70169;SDS011;57543;45.442;9.212;2023-04-08T10:51:40;15.83;;;9.67;;
70169;SDS011;57543;45.442;9.212;2023-04-08T10:54:47;13.85;;;9.15;;
70169;SDS011;57543;45.442;9.212;2023-04-08T10:57:52;14.25;;;8.70;;
70169;SDS011;57543;45.442;9.212;2023-04-08T11:01:01;15.93;;;8.48;;
70169;SDS011;57543;45.442;9.212;2023-04-08T11:04:16;13.95;;;8.73;;
70169;SDS011;57543;45.442;9.212;2023-04-08T11:07:25;13.57;;;8.87;;
70169;SDS011;57543;45.442;9.212;2023-04-08T11:10:29;15.93;;;9.50;;
70169;SDS011;57543;45.442;9.212;2023-04-08T11:13:39;22.80;;;10.90;;
70169;SDS011;57543;45.442;9.212;2023-04-08T11:16:44;16.85;;;9.98;;
70169;SDS011;57543;45.442;9.212;2023-04-08T11:19:48;14.38;;;8.82;;
70169;SDS011;57543;45.442;9.212;2023-04-08T11:22:52;14.23;;;8.97;;
70169;SDS011;57543;45.442;9.212;2023-04-08T11:25:56;16.33;;;8.30;;
70169;SDS011;57543;45.442;9.212;2023-04-08T11:29:00;11.80;;;7.43;;
70169;SDS011;57543;45.442;9.212;2023-04-08T11:32:04;13.52;;;8.38;;
70169;SDS011;57543;45.442;9.212;2023-04-08T11:35:07;11.35;;;7.55;;
70169;SDS011;57543;45.442;9.212;2023-04-08T11:38:11;13.47;;;8.10;;
70169;SDS011;57543;45.442;9.212;2023-04-08T11:41:16;14.18;;;7.20;;
70169;SDS011;57543;45.442;9.212;2023-04-08T11:44:28;12.18;;;7.78;;
70169;SDS011;57543;45.442;9.212;2023-04-08T11:47:33;13.65;;;8.38;;
70169;SDS011;57543;45.442;9.212;2023-04-08T11:50:37;12.77;;;7.82;;
70169;SDS011;57543;45.442;9.212;2023-04-08T11:53:40;12.87;;;7.67;;
70169;SDS011;57543;45.442;9.212;2023-04-08T11:56:52;15.18;;;9.23;;
70169;SDS011;57543;45.442;9.212;2023-04-08T11:59:56;13.90;;;9.68;;
70169;SDS011;57543;45.442;9.212;2023-04-08T12:03:01;15.25;;;9.85;;
70169;SDS011;57543;45.442;9.212;2023-04-08T12:06:05;13.77;;;8.52;;
70169;SDS011;57543;45.442;9.212;2023-04-08T12:09:11;16.77;;;9.10;;
70169;SDS011;57543;45.442;9.212;2023-04-08T12:12:15;16.45;;;10.23;;
70169;SDS011;57543;45.442;9.212;2023-04-08T12:15:19;15.77;;;9.13;;
70169;SDS011;57543;45.442;9.212;2023-04-08T12:18:23;14.43;;;9.15;;
70169;SDS011;57543;45.442;9.212;2023-04-08T12:21:26;14.35;;;8.48;;
70169;SDS011;57543;45.442;9.212;2023-04-08T12:24:30;11.33;;;7.67;;
70169;SDS011;57543;45.442;9.212;2023-04-08T12:27:33;12.85;;;8.57;;
70169;SDS011;57543;45.442;9.212;2023-04-08T12:30:37;14.52;;;8.10;;
70169;SDS011;57543;45.442;9.212;2023-04-08T12:33:40;13.75;;;7.80;;
70169;SDS011;57543;45.442;9.212;2023-04-08T12:36:44;15.73;;;9.43;;
70169;SDS011;57543;45.442;9.212;2023-04-08T12:39:48;13.47;;;8.27;;
70169;SDS011;57543;45.442;9.212;2023-04-08T12:42:52;14.05;;;8.93;;
70169;SDS011;57543;45.442;9.212;2023-04-08T12:45:55;12.52;;;8.18;;
70169;SDS011;57543;45.442;9.212;2023-04-08T12:48:59;13.52;;;8.70;;
70169;SDS011;57543;45.442;9.212;2023-04-08T12:52:03;15.93;;;9.43;;
70169;SDS011;57543;45.442;9.212;2023-04-08T12:55:07;15.77;;;9.80;;
70169;SDS011;57543;45.442;9.212;2023-04-08T12:58:11;13.68;;;8.45;;
70169;SDS011;57543;45.442;9.212;2023-04-08T13:01:15;14.98;;;9.20;;
70169;SDS011;57543;45.442;9.212;2023-04-08T13:04:18;14.02;;;8.50;;
70169;SDS011;57543;45.442;9.212;2023-04-08T13:07:22;14.07;;;8.45;;
70169;SDS011;57543;45.442;9.212;2023-04-08T13:10:25;12.97;;;8.37;;
70169;SDS011;57543;45.442;9.212;2023-04-08T13:13:29;10.90;;;7.28;;
70169;SDS011;57543;45.442;9.212;2023-04-08T13:16:33;14.73;;;8.48;;
70169;SDS011;57543;45.442;9.212;2023-04-08T13:19:37;14.02;;;8.07;;
70169;SDS011;57543;45.442;9.212;2023-04-08T13:22:41;14.48;;;7.97;;
70169;SDS011;57543;45.442;9.212;2023-04-08T13:25:45;12.00;;;7.00;;
70169;SDS011;57543;45.442;9.212;2023-04-08T13:28:49;13.68;;;8.23;;
70169;SDS011;57543;45.442;9.212;2023-04-08T13:31:54;13.82;;;7.72;;
70169;SDS011;57543;45.442;9.212;2023-04-08T13:34:58;13.23;;;8.02;;
70169;SDS011;57543;45.442;9.212;2023-04-08T13:38:02;11.70;;;7.35;;
70169;SDS011;57543;45.442;9.212;2023-04-08T13:41:05;12.97;;;7.70;;
70169;SDS011;57543;45.442;9.212;2023-04-08T13:44:09;13.30;;;8.02;;
70169;SDS011;57543;45.442;9.212;2023-04-08T13:47:12;11.73;;;7.80;;
70169;SDS011;57543;45.442;9.212;2023-04-08T13:50:16;10.13;;;6.72;;
70169;SDS011;57543;45.442;9.212;2023-04-08T13:53:20;11.98;;;6.88;;
70169;SDS011;57543;45.442;9.212;2023-04-08T13:56:23;11.03;;;6.87;;
70169;SDS011;57543;45.442;9.212;2023-04-08T13:59:27;10.25;;;6.90;;
70169;SDS011;57543;45.442;9.212;2023-04-08T14:02:30;11.43;;;6.65;;
70169;SDS011;57543;45.442;9.212;2023-04-08T14:05:34;12.15;;;6.90;;
70169;SDS011;57543;45.442;9.212;2023-04-08T14:08:38;12.70;;;7.32;;
70169;SDS011;57543;45.442;9.212;2023-04-08T14:11:42;10.77;;;7.07;;
70169;SDS011;57543;45.442;9.212;2023-04-08T14:14:46;9.43;;;5.88;;
70169;SDS011;57543;45.442;9.212;2023-04-08T14:17:50;13.18;;;7.30;;
70169;SDS011;57543;45.442;9.212;2023-04-08T14:20:54;12.07;;;7.40;;
70169;SDS011;57543;45.442;9.212;2023-04-08T14:23:58;11.10;;;6.65;;
70169;SDS011;57543;45.442;9.212;2023-04-08T14:27:02;11.07;;;5.93;;
70169;SDS011;57543;45.442;9.212;2023-04-08T14:30:06;10.88;;;7.00;;
70169;SDS011;57543;45.442;9.212;2023-04-08T14:33:10;9.88;;;6.13;;
70169;SDS011;57543;45.442;9.212;2023-04-08T14:36:14;10.35;;;6.63;;
70169;SDS011;57543;45.442;9.212;2023-04-08T14:39:18;12.18;;;5.95;;
70169;SDS011;57543;45.442;9.212;2023-04-08T14:42:21;8.93;;;6.23;;
70169;SDS011;57543;45.442;9.212;2023-04-08T14:45:25;10.88;;;6.00;;
70169;SDS011;57543;45.442;9.212;2023-04-08T14:48:35;13.45;;;7.35;;
70169;SDS011;57543;45.442;9.212;2023-04-08T14:51:39;9.85;;;6.25;;
70169;SDS011;57543;45.442;9.212;2023-04-08T14:54:43;10.52;;;6.75;;
70169;SDS011;57543;45.442;9.212;2023-04-08T14:57:47;10.67;;;6.50;;
70169;SDS011;57543;45.442;9.212;2023-04-08T15:00:52;10.68;;;6.93;;
70169;SDS011;57543;45.442;9.212;2023-04-08T15:03:57;10.82;;;6.38;;
70169;SDS011;57543;45.442;9.212;2023-04-08T15:07:01;12.38;;;6.28;;
70169;SDS011;57543;45.442;9.212;2023-04-08T15:10:05;10.95;;;6.10;;
70169;SDS011;57543;45.442;9.212;2023-04-08T15:13:09;9.03;;;5.70;;
70169;SDS011;57543;45.442;9.212;2023-04-08T15:16:13;10.48;;;6.70;;
70169;SDS011;57543;45.442;9.212;2023-04-08T15:19:17;13.65;;;7.47;;
70169;SDS011;57543;45.442;9.212;2023-04-08T15:22:23;12.05;;;6.93;;
70169;SDS011;57543;45.442;9.212;2023-04-08T15:25:26;11.57;;;6.78;;
70169;SDS011;57543;45.442;9.212;2023-04-08T15:28:30;11.50;;;6.80;;
70169;SDS011;57543;45.442;9.212;2023-04-08T15:31:33;11.45;;;6.60;;
70169;SDS011;57543;45.442;9.212;2023-04-08T15:34:37;11.85;;;6.80;;
70169;SDS011;57543;45.442;9.212;2023-04-08T15:37:40;11.55;;;6.78;;
70169;SDS011;57543;45.442;9.212;2023-04-08T15:40:44;12.30;;;6.95;;
70169;SDS011;57543;45.442;9.212;2023-04-08T15:43:47;13.33;;;7.43;;
70169;SDS011;57543;45.442;9.212;2023-04-08T15:46:52;11.80;;;6.57;;
70169;SDS011;57543;45.442;9.212;2023-04-08T15:49:55;14.55;;;7.22;;
70169;SDS011;57543;45.442;9.212;2023-04-08T15:52:59;11.77;;;6.95;;
70169;SDS011;57543;45.442;9.212;2023-04-08T15:56:03;12.27;;;6.63;;
70169;SDS011;57543;45.442;9.212;2023-04-08T15:59:07;10.60;;;6.47;;
70169;SDS011;57543;45.442;9.212;2023-04-08T16:02:13;12.63;;;6.57;;
70169;SDS011;57543;45.442;9.212;2023-04-08T16:05:16;11.15;;;6.40;;
70169;SDS011;57543;45.442;9.212;2023-04-08T16:08:20;9.20;;;5.80;;
70169;SDS011;57543;45.442;9.212;2023-04-08T16:11:25;10.15;;;6.55;;
70169;SDS011;57543;45.442;9.212;2023-04-08T16:14:30;11.83;;;6.37;;
70169;SDS011;57543;45.442;9.212;2023-04-08T16:17:33;11.50;;;7.03;;
70169;SDS011;57543;45.442;9.212;2023-04-08T16:20:37;12.02;;;6.95;;
70169;SDS011;57543;45.442;9.212;2023-04-08T16:23:41;11.55;;;6.13;;
70169;SDS011;57543;45.442;9.212;2023-04-08T16:26:44;16.00;;;6.55;;
70169;SDS011;57543;45.442;9.212;2023-04-08T16:29:48;13.07;;;6.20;;
70169;SDS011;57543;45.442;9.212;2023-04-08T16:32:52;11.48;;;6.20;;
70169;SDS011;57543;45.442;9.212;2023-04-08T16:35:56;11.27;;;6.20;;
70169;SDS011;57543;45.442;9.212;2023-04-08T16:39:00;13.70;;;5.90;;
70169;SDS011;57543;45.442;9.212;2023-04-08T16:42:03;11.43;;;6.50;;
70169;SDS011;57543;45.442;9.212;2023-04-08T16:45:07;12.27;;;6.10;;
70169;SDS011;57543;45.442;9.212;2023-04-08T16:48:11;11.18;;;5.90;;
70169;SDS011;57543;45.442;9.212;2023-04-08T16:51:17;11.85;;;6.15;;
70169;SDS011;57543;45.442;9.212;2023-04-08T16:54:20;11.10;;;5.30;;
70169;SDS011;57543;45.442;9.212;2023-04-08T16:57:24;12.02;;;6.28;;
70169;SDS011;57543;45.442;9.212;2023-04-08T17:00:29;10.63;;;5.47;;
70169;SDS011;57543;45.442;9.212;2023-04-08T17:03:33;9.38;;;5.45;;
70169;SDS011;57543;45.442;9.212;2023-04-08T17:06:40;11.25;;;5.38;;
70169;SDS011;57543;45.442;9.212;2023-04-08T17:09:43;10.73;;;5.85;;
70169;SDS011;57543;45.442;9.212;2023-04-08T17:12:51;8.93;;;5.30;;
70169;SDS011;57543;45.442;9.212;2023-04-08T17:15:55;12.73;;;6.20;;
70169;SDS011;57543;45.442;9.212;2023-04-08T17:18:59;13.20;;;6.63;;
70169;SDS011;57543;45.442;9.212;2023-04-08T17:22:03;11.68;;;6.28;;
70169;SDS011;57543;45.442;9.212;2023-04-08T17:25:06;11.68;;;6.15;;
70169;SDS011;57543;45.442;9.212;2023-04-08T17:28:10;11.88;;;6.32;;
70169;SDS011;57543;45.442;9.212;2023-04-08T17:31:14;10.93;;;6.30;;
70169;SDS011;57543;45.442;9.212;2023-04-08T17:34:18;11.15;;;6.07;;
70169;SDS011;57543;45.442;9.212;2023-04-08T17:37:21;9.88;;;5.00;;
70169;SDS011;57543;45.442;9.212;2023-04-08T17:40:25;13.73;;;5.65;;
70169;SDS011;57543;45.442;9.212;2023-04-08T17:43:28;10.50;;;5.35;;
70169;SDS011;57543;45.442;9.212;2023-04-08T17:46:32;8.33;;;5.10;;
70169;SDS011;57543;45.442;9.212;2023-04-08T17:49:35;10.13;;;5.63;;
70169;SDS011;57543;45.442;9.212;2023-04-08T17:52:43;10.25;;;5.28;;
70169;SDS011;57543;45.442;9.212;2023-04-08T17:55:48;12.88;;;5.53;;
70169;SDS011;57543;45.442;9.212;2023-04-08T17:58:52;11.98;;;6.35;;
70169;SDS011;57543;45.442;9.212;2023-04-08T18:01:55;10.87;;;5.00;;
70169;SDS011;57543;45.442;9.212;2023-04-08T18:04:59;11.32;;;5.25;;
70169;SDS011;57543;45.442;9.212;2023-04-08T18:08:03;15.20;;;6.53;;
70169;SDS011;57543;45.442;9.212;2023-04-08T18:11:06;15.40;;;6.63;;
70169;SDS011;57543;45.442;9.212;2023-04-08T18:14:10;14.88;;;7.95;;
70169;SDS011;57543;45.442;9.212;2023-04-08T18:17:14;16.13;;;8.30;;
70169;SDS011;57543;45.442;9.212;2023-04-08T18:20:18;14.15;;;7.82;;